sensor_id;sensor_type;location;lat;lon;timestamp;P1;durP1;ratioP1;P2;durP2;ratioP2
55827;SDS011;41758;51.992;5.890;2023-02-01T00:00:29;14.52;;;3.30;;
55827;SDS011;41758;51.992;5.890;2023-02-01T00:02:55;12.23;;;3.50;;
55827;SDS011;41758;51.992;5.890;2023-02-01T00:05:21;15.05;;;3.03;;
55827;SDS011;41758;51.992;5.890;2023-02-01T00:07:47;14.15;;;3.33;;
55827;SDS011;41758;51.992;5.890;2023-02-01T00:10:14;15.13;;;3.35;;
55827;SDS011;41758;51.992;5.890;2023-02-01T00:12:39;17.67;;;3.67;;
55827;SDS011;41758;51.992;5.890;2023-02-01T00:15:05;10.45;;;3.20;;
55827;SDS011;41758;51.992;5.890;2023-02-01T00:17:31;11.77;;;3.30;;
55827;SDS011;41758;51.992;5.890;2023-02-01T00:19:57;13.52;;;3.33;;
55827;SDS011;41758;51.992;5.890;2023-02-01T00:22:23;11.10;;;3.05;;
55827;SDS011;41758;51.992;5.890;2023-02-01T00:24:48;15.30;;;3.67;;
55827;SDS011;41758;51.992;5.890;2023-02-01T00:27:14;11.57;;;3.00;;
55827;SDS011;41758;51.992;5.890;2023-02-01T00:29:43;11.05;;;3.38;;
55827;SDS011;41758;51.992;5.890;2023-02-01T00:32:10;13.43;;;2.92;;
55827;SDS011;41758;51.992;5.890;2023-02-01T00:34:35;12.45;;;3.45;;
55827;SDS011;41758;51.992;5.890;2023-02-01T00:37:01;13.15;;;3.30;;
55827;SDS011;41758;51.992;5.890;2023-02-01T00:39:27;13.02;;;3.38;;
55827;SDS011;41758;51.992;5.890;2023-02-01T00:41:52;12.02;;;3.35;;
55827;SDS011;41758;51.992;5.890;2023-02-01T00:44:18;11.55;;;3.25;;
55827;SDS011;41758;51.992;5.890;2023-02-01T00:46:44;11.25;;;3.53;;
55827;SDS011;41758;51.992;5.890;2023-02-01T00:49:09;13.30;;;3.28;;
55827;SDS011;41758;51.992;5.890;2023-02-01T00:51:35;13.43;;;3.33;;
55827;SDS011;41758;51.992;5.890;2023-02-01T00:54:01;14.60;;;3.67;;
55827;SDS011;41758;51.992;5.890;2023-02-01T00:56:28;21.08;;;3.85;;
55827;SDS011;41758;51.992;5.890;2023-02-01T00:58:54;9.18;;;2.80;;
55827;SDS011;41758;51.992;5.890;2023-02-01T01:01:21;11.07;;;3.38;;
55827;SDS011;41758;51.992;5.890;2023-02-01T01:03:50;13.75;;;3.40;;
55827;SDS011;41758;51.992;5.890;2023-02-01T01:06:19;13.80;;;3.30;;
55827;SDS011;41758;51.992;5.890;2023-02-01T01:08:50;12.15;;;3.17;;
55827;SDS011;41758;51.992;5.890;2023-02-01T01:11:19;15.80;;;3.13;;
55827;SDS011;41758;51.992;5.890;2023-02-01T01:13:47;11.80;;;2.63;;
55827;SDS011;41758;51.992;5.890;2023-02-01T01:16:14;12.65;;;3.25;;
55827;SDS011;41758;51.992;5.890;2023-02-01T01:18:40;8.27;;;2.90;;
55827;SDS011;41758;51.992;5.890;2023-02-01T01:21:07;16.80;;;2.95;;
55827;SDS011;41758;51.992;5.890;2023-02-01T01:23:34;11.85;;;3.72;;
55827;SDS011;41758;51.992;5.890;2023-02-01T01:26:04;11.98;;;2.78;;
55827;SDS011;41758;51.992;5.890;2023-02-01T01:28:31;9.73;;;3.03;;
55827;SDS011;41758;51.992;5.890;2023-02-01T01:30:56;9.95;;;3.03;;
55827;SDS011;41758;51.992;5.890;2023-02-01T01:33:22;12.05;;;3.10;;
55827;SDS011;41758;51.992;5.890;2023-02-01T01:35:48;13.35;;;3.03;;
55827;SDS011;41758;51.992;5.890;2023-02-01T01:38:14;11.40;;;3.03;;
55827;SDS011;41758;51.992;5.890;2023-02-01T01:40:45;19.73;;;3.80;;
55827;SDS011;41758;51.992;5.890;2023-02-01T01:43:12;13.27;;;3.13;;
55827;SDS011;41758;51.992;5.890;2023-02-01T01:45:39;14.77;;;3.47;;
55827;SDS011;41758;51.992;5.890;2023-02-01T01:48:25;12.57;;;3.25;;
55827;SDS011;41758;51.992;5.890;2023-02-01T01:51:02;13.85;;;3.22;;
55827;SDS011;41758;51.992;5.890;2023-02-01T01:53:35;14.38;;;3.55;;
55827;SDS011;41758;51.992;5.890;2023-02-01T01:56:08;12.68;;;3.30;;
55827;SDS011;41758;51.992;5.890;2023-02-01T01:58:35;12.40;;;3.00;;
55827;SDS011;41758;51.992;5.890;2023-02-01T02:01:05;12.18;;;3.60;;
55827;SDS011;41758;51.992;5.890;2023-02-01T02:03:43;16.75;;;3.25;;
55827;SDS011;41758;51.992;5.890;2023-02-01T02:06:26;13.82;;;3.38;;
55827;SDS011;41758;51.992;5.890;2023-02-01T02:08:58;11.63;;;2.83;;
55827;SDS011;41758;51.992;5.890;2023-02-01T02:11:24;15.32;;;2.80;;
55827;SDS011;41758;51.992;5.890;2023-02-01T02:13:50;14.13;;;3.20;;
55827;SDS011;41758;51.992;5.890;2023-02-01T02:21:43;11.50;;;2.85;;
55827;SDS011;41758;51.992;5.890;2023-02-01T02:27:15;17.85;;;3.03;;
55827;SDS011;41758;51.992;5.890;2023-02-01T02:30:16;17.08;;;3.30;;
55827;SDS011;41758;51.992;5.890;2023-02-01T03:22:16;16.33;;;3.40;;
55827;SDS011;41758;51.992;5.890;2023-02-01T04:12:26;13.07;;;3.50;;
55827;SDS011;41758;51.992;5.890;2023-02-01T04:42:54;16.67;;;3.08;;
55827;SDS011;41758;51.992;5.890;2023-02-01T05:19:47;9.70;;;2.90;;
55827;SDS011;41758;51.992;5.890;2023-02-01T05:22:34;20.60;;;3.38;;
55827;SDS011;41758;51.992;5.890;2023-02-01T06:05:33;9.63;;;3.33;;
55827;SDS011;41758;51.992;5.890;2023-02-01T06:24:12;11.70;;;3.20;;
55827;SDS011;41758;51.992;5.890;2023-02-01T06:41:51;12.10;;;2.97;;
55827;SDS011;41758;51.992;5.890;2023-02-01T06:44:17;16.27;;;3.30;;
55827;SDS011;41758;51.992;5.890;2023-02-01T06:46:43;14.57;;;3.38;;
55827;SDS011;41758;51.992;5.890;2023-02-01T06:49:09;8.05;;;2.95;;
55827;SDS011;41758;51.992;5.890;2023-02-01T06:51:38;17.02;;;3.20;;
55827;SDS011;41758;51.992;5.890;2023-02-01T06:54:10;13.90;;;3.15;;
55827;SDS011;41758;51.992;5.890;2023-02-01T06:56:39;17.45;;;3.08;;
55827;SDS011;41758;51.992;5.890;2023-02-01T06:59:05;15.75;;;3.05;;
55827;SDS011;41758;51.992;5.890;2023-02-01T07:01:31;11.95;;;3.17;;
55827;SDS011;41758;51.992;5.890;2023-02-01T07:03:57;12.07;;;3.08;;
55827;SDS011;41758;51.992;5.890;2023-02-01T07:06:23;15.02;;;3.17;;
55827;SDS011;41758;51.992;5.890;2023-02-01T07:08:49;16.85;;;3.35;;
55827;SDS011;41758;51.992;5.890;2023-02-01T07:11:21;15.00;;;3.45;;
55827;SDS011;41758;51.992;5.890;2023-02-01T07:14:05;11.70;;;3.05;;
55827;SDS011;41758;51.992;5.890;2023-02-01T07:16:31;12.10;;;3.33;;
55827;SDS011;41758;51.992;5.890;2023-02-01T07:18:59;11.60;;;3.33;;
55827;SDS011;41758;51.992;5.890;2023-02-01T07:21:31;14.18;;;3.40;;
55827;SDS011;41758;51.992;5.890;2023-02-01T07:24:00;12.35;;;2.88;;
55827;SDS011;41758;51.992;5.890;2023-02-01T07:26:27;15.43;;;3.33;;
55827;SDS011;41758;51.992;5.890;2023-02-01T07:28:53;16.33;;;3.33;;
55827;SDS011;41758;51.992;5.890;2023-02-01T07:31:19;11.60;;;3.10;;
55827;SDS011;41758;51.992;5.890;2023-02-01T07:33:47;11.05;;;3.35;;
55827;SDS011;41758;51.992;5.890;2023-02-01T07:36:16;13.60;;;3.17;;
55827;SDS011;41758;51.992;5.890;2023-02-01T07:38:43;9.90;;;3.00;;
55827;SDS011;41758;51.992;5.890;2023-02-01T07:41:09;11.65;;;2.80;;
55827;SDS011;41758;51.992;5.890;2023-02-01T07:43:56;13.68;;;3.92;;
55827;SDS011;41758;51.992;5.890;2023-02-01T07:46:28;13.57;;;2.58;;
55827;SDS011;41758;51.992;5.890;2023-02-01T07:48:53;17.00;;;3.30;;
55827;SDS011;41758;51.992;5.890;2023-02-01T07:51:20;9.00;;;3.08;;
55827;SDS011;41758;51.992;5.890;2023-02-01T07:53:46;13.63;;;3.30;;
55827;SDS011;41758;51.992;5.890;2023-02-01T07:56:19;14.93;;;3.15;;
55827;SDS011;41758;51.992;5.890;2023-02-01T07:58:50;10.48;;;3.00;;
55827;SDS011;41758;51.992;5.890;2023-02-01T08:01:18;9.60;;;3.22;;
55827;SDS011;41758;51.992;5.890;2023-02-01T08:03:52;11.32;;;2.95;;
55827;SDS011;41758;51.992;5.890;2023-02-01T08:06:20;10.32;;;3.13;;
55827;SDS011;41758;51.992;5.890;2023-02-01T08:08:50;16.33;;;3.05;;
55827;SDS011;41758;51.992;5.890;2023-02-01T08:11:18;14.85;;;2.95;;
55827;SDS011;41758;51.992;5.890;2023-02-01T08:17:06;18.40;;;3.33;;
55827;SDS011;41758;51.992;5.890;2023-02-01T08:19:32;9.68;;;2.78;;
55827;SDS011;41758;51.992;5.890;2023-02-01T08:21:58;12.50;;;3.28;;
55827;SDS011;41758;51.992;5.890;2023-02-01T08:24:24;10.73;;;2.70;;
55827;SDS011;41758;51.992;5.890;2023-02-01T08:26:53;9.95;;;3.05;;
55827;SDS011;41758;51.992;5.890;2023-02-01T08:29:28;16.95;;;3.35;;
55827;SDS011;41758;51.992;5.890;2023-02-01T08:32:00;14.68;;;3.00;;
55827;SDS011;41758;51.992;5.890;2023-02-01T08:34:26;12.65;;;2.90;;
55827;SDS011;41758;51.992;5.890;2023-02-01T08:36:52;8.13;;;2.75;;
55827;SDS011;41758;51.992;5.890;2023-02-01T08:39:22;7.30;;;2.72;;
55827;SDS011;41758;51.992;5.890;2023-02-01T08:41:48;8.80;;;2.60;;
55827;SDS011;41758;51.992;5.890;2023-02-01T08:44:34;20.55;;;3.20;;
55827;SDS011;41758;51.992;5.890;2023-02-01T08:46:59;14.52;;;3.05;;
55827;SDS011;41758;51.992;5.890;2023-02-01T08:49:26;18.98;;;2.90;;
55827;SDS011;41758;51.992;5.890;2023-02-01T08:51:51;11.40;;;2.70;;
55827;SDS011;41758;51.992;5.890;2023-02-01T08:54:20;12.93;;;2.80;;
55827;SDS011;41758;51.992;5.890;2023-02-01T08:56:47;14.98;;;3.13;;
55827;SDS011;41758;51.992;5.890;2023-02-01T08:59:13;15.38;;;3.45;;
55827;SDS011;41758;51.992;5.890;2023-02-01T09:01:41;11.38;;;2.83;;
55827;SDS011;41758;51.992;5.890;2023-02-01T09:04:07;10.85;;;2.88;;
55827;SDS011;41758;51.992;5.890;2023-02-01T09:06:36;14.13;;;3.65;;
55827;SDS011;41758;51.992;5.890;2023-02-01T09:09:09;15.48;;;3.17;;
55827;SDS011;41758;51.992;5.890;2023-02-01T09:11:45;11.43;;;3.00;;
55827;SDS011;41758;51.992;5.890;2023-02-01T09:14:15;10.27;;;2.92;;
55827;SDS011;41758;51.992;5.890;2023-02-01T09:16:45;11.85;;;3.35;;
55827;SDS011;41758;51.992;5.890;2023-02-01T09:19:11;15.30;;;3.28;;
55827;SDS011;41758;51.992;5.890;2023-02-01T09:21:36;11.27;;;2.67;;
55827;SDS011;41758;51.992;5.890;2023-02-01T09:24:02;8.85;;;2.67;;
55827;SDS011;41758;51.992;5.890;2023-02-01T09:26:29;11.05;;;2.85;;
55827;SDS011;41758;51.992;5.890;2023-02-01T09:28:55;15.65;;;3.55;;
55827;SDS011;41758;51.992;5.890;2023-02-01T09:31:20;15.38;;;3.10;;
55827;SDS011;41758;51.992;5.890;2023-02-01T09:33:46;11.70;;;2.92;;
55827;SDS011;41758;51.992;5.890;2023-02-01T09:36:12;12.82;;;3.22;;
55827;SDS011;41758;51.992;5.890;2023-02-01T09:38:37;16.45;;;3.22;;
55827;SDS011;41758;51.992;5.890;2023-02-01T09:41:07;17.33;;;3.80;;
55827;SDS011;41758;51.992;5.890;2023-02-01T09:44:05;10.85;;;3.30;;
55827;SDS011;41758;51.992;5.890;2023-02-01T09:47:03;11.95;;;3.25;;
55827;SDS011;41758;51.992;5.890;2023-02-01T09:49:29;15.40;;;3.47;;
55827;SDS011;41758;51.992;5.890;2023-02-01T09:52:02;13.70;;;3.58;;
55827;SDS011;41758;51.992;5.890;2023-02-01T09:54:40;8.57;;;2.60;;
55827;SDS011;41758;51.992;5.890;2023-02-01T09:57:24;15.15;;;3.15;;
55827;SDS011;41758;51.992;5.890;2023-02-01T09:59:59;10.27;;;3.10;;
55827;SDS011;41758;51.992;5.890;2023-02-01T10:02:37;15.38;;;3.55;;
55827;SDS011;41758;51.992;5.890;2023-02-01T10:05:11;13.85;;;3.20;;
55827;SDS011;41758;51.992;5.890;2023-02-01T10:07:43;14.10;;;2.90;;
55827;SDS011;41758;51.992;5.890;2023-02-01T10:10:15;10.60;;;2.90;;
55827;SDS011;41758;51.992;5.890;2023-02-01T10:13:11;9.55;;;3.13;;
55827;SDS011;41758;51.992;5.890;2023-02-01T10:18:32;12.82;;;3.13;;
55827;SDS011;41758;51.992;5.890;2023-02-01T10:21:17;17.15;;;3.58;;
55827;SDS011;41758;51.992;5.890;2023-02-01T10:29:37;10.38;;;3.03;;
55827;SDS011;41758;51.992;5.890;2023-02-01T10:32:16;14.27;;;3.03;;
55827;SDS011;41758;51.992;5.890;2023-02-01T10:34:58;8.88;;;2.97;;
55827;SDS011;41758;51.992;5.890;2023-02-01T10:37:42;11.25;;;2.80;;
55827;SDS011;41758;51.992;5.890;2023-02-01T10:42:50;11.35;;;3.53;;
55827;SDS011;41758;51.992;5.890;2023-02-01T10:45:22;17.05;;;3.53;;
55827;SDS011;41758;51.992;5.890;2023-02-01T10:47:52;16.48;;;3.13;;
55827;SDS011;41758;51.992;5.890;2023-02-01T10:53:02;11.90;;;3.15;;
55827;SDS011;41758;51.992;5.890;2023-02-01T10:58:16;13.40;;;3.10;;
55827;SDS011;41758;51.992;5.890;2023-02-01T11:04:48;9.98;;;3.55;;
55827;SDS011;41758;51.992;5.890;2023-02-01T11:07:46;16.15;;;3.83;;
55827;SDS011;41758;51.992;5.890;2023-02-01T11:13:11;16.13;;;3.00;;
55827;SDS011;41758;51.992;5.890;2023-02-01T11:15:55;15.13;;;4.03;;
55827;SDS011;41758;51.992;5.890;2023-02-01T11:18:36;13.73;;;3.25;;
55827;SDS011;41758;51.992;5.890;2023-02-01T11:21:04;10.00;;;3.00;;
55827;SDS011;41758;51.992;5.890;2023-02-01T11:23:43;15.85;;;3.65;;
55827;SDS011;41758;51.992;5.890;2023-02-01T11:26:21;11.43;;;3.20;;
55827;SDS011;41758;51.992;5.890;2023-02-01T11:28:59;12.25;;;3.88;;
55827;SDS011;41758;51.992;5.890;2023-02-01T11:31:34;17.67;;;3.40;;
55827;SDS011;41758;51.992;5.890;2023-02-01T11:34:10;13.05;;;3.30;;
55827;SDS011;41758;51.992;5.890;2023-02-01T11:36:59;16.75;;;3.28;;
55827;SDS011;41758;51.992;5.890;2023-02-01T11:39:33;11.60;;;3.72;;
55827;SDS011;41758;51.992;5.890;2023-02-01T11:42:16;13.27;;;3.72;;
55827;SDS011;41758;51.992;5.890;2023-02-01T11:44:46;18.98;;;3.45;;
55827;SDS011;41758;51.992;5.890;2023-02-01T11:47:31;12.75;;;3.75;;
55827;SDS011;41758;51.992;5.890;2023-02-01T11:50:15;14.50;;;3.42;;
55827;SDS011;41758;51.992;5.890;2023-02-01T11:53:03;13.35;;;3.50;;
55827;SDS011;41758;51.992;5.890;2023-02-01T11:55:42;13.00;;;3.67;;
55827;SDS011;41758;51.992;5.890;2023-02-01T12:07:48;15.98;;;3.65;;
55827;SDS011;41758;51.992;5.890;2023-02-01T12:11:04;18.95;;;3.55;;
55827;SDS011;41758;51.992;5.890;2023-02-01T12:13:38;15.88;;;3.47;;
55827;SDS011;41758;51.992;5.890;2023-02-01T12:34:45;14.18;;;3.30;;
55827;SDS011;41758;51.992;5.890;2023-02-01T12:40:46;11.90;;;2.75;;
55827;SDS011;41758;51.992;5.890;2023-02-01T12:55:58;17.25;;;3.30;;
55827;SDS011;41758;51.992;5.890;2023-02-01T13:18:43;12.02;;;3.28;;
55827;SDS011;41758;51.992;5.890;2023-02-01T13:21:33;13.00;;;3.03;;
55827;SDS011;41758;51.992;5.890;2023-02-01T13:24:43;12.50;;;3.03;;
55827;SDS011;41758;51.992;5.890;2023-02-01T13:28:04;9.80;;;2.92;;
55827;SDS011;41758;51.992;5.890;2023-02-01T13:43:29;16.17;;;3.38;;
55827;SDS011;41758;51.992;5.890;2023-02-01T13:53:23;11.60;;;3.13;;
55827;SDS011;41758;51.992;5.890;2023-02-01T13:56:16;12.25;;;3.05;;
55827;SDS011;41758;51.992;5.890;2023-02-01T13:58:45;15.20;;;3.03;;
55827;SDS011;41758;51.992;5.890;2023-02-01T14:04:01;9.73;;;2.55;;
55827;SDS011;41758;51.992;5.890;2023-02-01T14:06:44;9.65;;;2.97;;
55827;SDS011;41758;51.992;5.890;2023-02-01T14:09:21;14.98;;;3.17;;
55827;SDS011;41758;51.992;5.890;2023-02-01T14:12:41;6.78;;;2.60;;
55827;SDS011;41758;51.992;5.890;2023-02-01T14:15:20;9.43;;;2.70;;
55827;SDS011;41758;51.992;5.890;2023-02-01T14:21:23;10.70;;;3.20;;
55827;SDS011;41758;51.992;5.890;2023-02-01T14:23:58;14.57;;;3.42;;
55827;SDS011;41758;51.992;5.890;2023-02-01T14:26:44;14.05;;;2.88;;
55827;SDS011;41758;51.992;5.890;2023-02-01T14:32:18;14.52;;;3.17;;
55827;SDS011;41758;51.992;5.890;2023-02-01T14:37:28;12.00;;;2.97;;
55827;SDS011;41758;51.992;5.890;2023-02-01T14:40:04;11.02;;;2.95;;
55827;SDS011;41758;51.992;5.890;2023-02-01T14:51:16;8.32;;;2.65;;
55827;SDS011;41758;51.992;5.890;2023-02-01T14:53:44;14.75;;;3.33;;
55827;SDS011;41758;51.992;5.890;2023-02-01T14:56:20;15.68;;;2.72;;
55827;SDS011;41758;51.992;5.890;2023-02-01T14:59:00;14.13;;;3.03;;
55827;SDS011;41758;51.992;5.890;2023-02-01T15:01:35;11.20;;;2.85;;
55827;SDS011;41758;51.992;5.890;2023-02-01T15:04:14;15.57;;;2.92;;
55827;SDS011;41758;51.992;5.890;2023-02-01T15:14:40;12.43;;;3.40;;
55827;SDS011;41758;51.992;5.890;2023-02-01T15:17:59;13.82;;;2.65;;
55827;SDS011;41758;51.992;5.890;2023-02-01T15:20:40;10.93;;;2.50;;
55827;SDS011;41758;51.992;5.890;2023-02-01T15:23:15;11.57;;;3.17;;
55827;SDS011;41758;51.992;5.890;2023-02-01T15:25:55;12.30;;;3.35;;
55827;SDS011;41758;51.992;5.890;2023-02-01T15:31:44;16.20;;;3.55;;
55827;SDS011;41758;51.992;5.890;2023-02-01T15:34:23;15.93;;;3.10;;
55827;SDS011;41758;51.992;5.890;2023-02-01T15:37:21;14.55;;;3.20;;
55827;SDS011;41758;51.992;5.890;2023-02-01T15:42:55;13.55;;;3.13;;
55827;SDS011;41758;51.992;5.890;2023-02-01T15:49:40;11.73;;;2.65;;
55827;SDS011;41758;51.992;5.890;2023-02-01T15:52:35;7.20;;;2.38;;
55827;SDS011;41758;51.992;5.890;2023-02-01T15:55:45;7.28;;;2.05;;
55827;SDS011;41758;51.992;5.890;2023-02-01T15:58:23;8.23;;;2.33;;
55827;SDS011;41758;51.992;5.890;2023-02-01T16:07:28;7.78;;;2.30;;
55827;SDS011;41758;51.992;5.890;2023-02-01T16:10:00;8.60;;;2.58;;
55827;SDS011;41758;51.992;5.890;2023-02-01T16:12:50;10.93;;;2.78;;
55827;SDS011;41758;51.992;5.890;2023-02-01T16:15:44;12.20;;;3.22;;
55827;SDS011;41758;51.992;5.890;2023-02-01T16:18:17;16.17;;;3.13;;
55827;SDS011;41758;51.992;5.890;2023-02-01T16:21:34;14.13;;;3.30;;
55827;SDS011;41758;51.992;5.890;2023-02-01T16:24:01;15.65;;;3.30;;
55827;SDS011;41758;51.992;5.890;2023-02-01T16:26:40;13.77;;;3.25;;
55827;SDS011;41758;51.992;5.890;2023-02-01T16:29:34;12.70;;;3.20;;
55827;SDS011;41758;51.992;5.890;2023-02-01T16:32:05;13.07;;;3.25;;
55827;SDS011;41758;51.992;5.890;2023-02-01T16:34:46;17.63;;;3.38;;
55827;SDS011;41758;51.992;5.890;2023-02-01T16:37:13;16.25;;;3.08;;
55827;SDS011;41758;51.992;5.890;2023-02-01T17:02:49;15.55;;;3.25;;
55827;SDS011;41758;51.992;5.890;2023-02-01T17:05:39;11.43;;;3.10;;
55827;SDS011;41758;51.992;5.890;2023-02-01T17:12:14;16.10;;;3.40;;
55827;SDS011;41758;51.992;5.890;2023-02-01T17:14:57;12.20;;;3.17;;
55827;SDS011;41758;51.992;5.890;2023-02-01T17:20:56;14.25;;;3.40;;
55827;SDS011;41758;51.992;5.890;2023-02-01T17:24:04;13.45;;;3.28;;
55827;SDS011;41758;51.992;5.890;2023-02-01T17:27:04;14.25;;;3.13;;
55827;SDS011;41758;51.992;5.890;2023-02-01T17:29:33;16.13;;;3.50;;
55827;SDS011;41758;51.992;5.890;2023-02-01T17:55:23;5.50;;;2.65;;
55827;SDS011;41758;51.992;5.890;2023-02-01T17:58:03;11.98;;;2.97;;
55827;SDS011;41758;51.992;5.890;2023-02-01T18:00:28;11.40;;;2.67;;
55827;SDS011;41758;51.992;5.890;2023-02-01T18:02:54;9.32;;;2.97;;
55827;SDS011;41758;51.992;5.890;2023-02-01T18:05:22;11.98;;;3.17;;
55827;SDS011;41758;51.992;5.890;2023-02-01T18:08:05;14.00;;;3.40;;
55827;SDS011;41758;51.992;5.890;2023-02-01T18:10:31;14.82;;;3.22;;
55827;SDS011;41758;51.992;5.890;2023-02-01T18:12:58;14.95;;;3.20;;
55827;SDS011;41758;51.992;5.890;2023-02-01T18:15:24;14.05;;;3.35;;
55827;SDS011;41758;51.992;5.890;2023-02-01T18:17:50;12.63;;;2.92;;
55827;SDS011;41758;51.992;5.890;2023-02-01T18:20:17;13.88;;;3.58;;
55827;SDS011;41758;51.992;5.890;2023-02-01T18:22:45;11.70;;;3.13;;
55827;SDS011;41758;51.992;5.890;2023-02-01T18:25:19;10.23;;;3.53;;
55827;SDS011;41758;51.992;5.890;2023-02-01T18:27:47;9.27;;;2.90;;
55827;SDS011;41758;51.992;5.890;2023-02-01T18:30:27;11.80;;;3.42;;
55827;SDS011;41758;51.992;5.890;2023-02-01T18:37:33;13.90;;;3.30;;
55827;SDS011;41758;51.992;5.890;2023-02-01T18:48:41;5.13;;;2.22;;
55827;SDS011;41758;51.992;5.890;2023-02-01T18:55:31;7.70;;;2.63;;
55827;SDS011;41758;51.992;5.890;2023-02-01T18:58:00;5.60;;;2.50;;
55827;SDS011;41758;51.992;5.890;2023-02-01T19:00:30;10.48;;;2.42;;
55827;SDS011;41758;51.992;5.890;2023-02-01T19:05:27;5.47;;;2.15;;
55827;SDS011;41758;51.992;5.890;2023-02-01T19:07:56;11.30;;;2.58;;
55827;SDS011;41758;51.992;5.890;2023-02-01T19:10:22;8.00;;;2.45;;
55827;SDS011;41758;51.992;5.890;2023-02-01T19:12:49;6.30;;;2.83;;
55827;SDS011;41758;51.992;5.890;2023-02-01T19:15:25;8.30;;;2.60;;
55827;SDS011;41758;51.992;5.890;2023-02-01T19:17:57;7.40;;;2.50;;
55827;SDS011;41758;51.992;5.890;2023-02-01T19:20:26;4.22;;;1.98;;
55827;SDS011;41758;51.992;5.890;2023-02-01T19:22:52;7.85;;;2.75;;
55827;SDS011;41758;51.992;5.890;2023-02-01T19:25:19;8.65;;;2.78;;
55827;SDS011;41758;51.992;5.890;2023-02-01T19:27:50;6.63;;;2.53;;
55827;SDS011;41758;51.992;5.890;2023-02-01T19:30:20;11.13;;;2.40;;
55827;SDS011;41758;51.992;5.890;2023-02-01T19:32:46;6.05;;;2.25;;
55827;SDS011;41758;51.992;5.890;2023-02-01T19:35:15;5.53;;;2.33;;
55827;SDS011;41758;51.992;5.890;2023-02-01T19:37:46;7.10;;;2.17;;
55827;SDS011;41758;51.992;5.890;2023-02-01T19:40:13;10.55;;;2.50;;
55827;SDS011;41758;51.992;5.890;2023-02-01T19:42:43;7.90;;;2.17;;
55827;SDS011;41758;51.992;5.890;2023-02-01T19:45:11;6.95;;;2.03;;
55827;SDS011;41758;51.992;5.890;2023-02-01T19:47:40;7.00;;;2.15;;
55827;SDS011;41758;51.992;5.890;2023-02-01T19:50:40;10.27;;;2.28;;
55827;SDS011;41758;51.992;5.890;2023-02-01T19:53:10;9.40;;;2.63;;
55827;SDS011;41758;51.992;5.890;2023-02-01T19:55:36;8.43;;;2.78;;
55827;SDS011;41758;51.992;5.890;2023-02-01T19:58:10;6.35;;;2.13;;
55827;SDS011;41758;51.992;5.890;2023-02-01T20:00:36;7.72;;;2.28;;
55827;SDS011;41758;51.992;5.890;2023-02-01T20:03:02;10.55;;;2.40;;
55827;SDS011;41758;51.992;5.890;2023-02-01T20:05:32;6.60;;;2.33;;
55827;SDS011;41758;51.992;5.890;2023-02-01T20:10:47;11.15;;;3.08;;
55827;SDS011;41758;51.992;5.890;2023-02-01T20:13:14;8.23;;;2.85;;
55827;SDS011;41758;51.992;5.890;2023-02-01T20:15:47;13.10;;;3.40;;
55827;SDS011;41758;51.992;5.890;2023-02-01T20:18:20;9.77;;;3.08;;
55827;SDS011;41758;51.992;5.890;2023-02-01T20:20:46;10.07;;;3.45;;
55827;SDS011;41758;51.992;5.890;2023-02-01T20:23:19;9.27;;;3.03;;
55827;SDS011;41758;51.992;5.890;2023-02-01T20:25:46;19.83;;;3.97;;
55827;SDS011;41758;51.992;5.890;2023-02-01T20:28:11;16.50;;;3.80;;
55827;SDS011;41758;51.992;5.890;2023-02-01T20:30:37;14.50;;;3.88;;
55827;SDS011;41758;51.992;5.890;2023-02-01T20:33:16;13.32;;;3.70;;
55827;SDS011;41758;51.992;5.890;2023-02-01T20:36:01;9.70;;;3.40;;
55827;SDS011;41758;51.992;5.890;2023-02-01T20:38:53;10.27;;;3.42;;
55827;SDS011;41758;51.992;5.890;2023-02-01T20:41:23;14.90;;;4.00;;
55827;SDS011;41758;51.992;5.890;2023-02-01T20:44:14;14.00;;;3.90;;
55827;SDS011;41758;51.992;5.890;2023-02-01T20:46:41;12.27;;;3.22;;
55827;SDS011;41758;51.992;5.890;2023-02-01T20:49:13;16.88;;;3.40;;
55827;SDS011;41758;51.992;5.890;2023-02-01T20:51:42;11.35;;;3.38;;
55827;SDS011;41758;51.992;5.890;2023-02-01T20:58:18;6.30;;;2.70;;
55827;SDS011;41758;51.992;5.890;2023-02-01T21:04:16;7.57;;;2.72;;
55827;SDS011;41758;51.992;5.890;2023-02-01T21:06:46;9.27;;;3.05;;
55827;SDS011;41758;51.992;5.890;2023-02-01T21:09:23;8.57;;;2.67;;
55827;SDS011;41758;51.992;5.890;2023-02-01T21:14:37;7.18;;;2.60;;
55827;SDS011;41758;51.992;5.890;2023-02-01T21:17:09;8.88;;;2.67;;
55827;SDS011;41758;51.992;5.890;2023-02-01T21:19:38;10.15;;;3.47;;
55827;SDS011;41758;51.992;5.890;2023-02-01T21:22:08;11.85;;;3.28;;
55827;SDS011;41758;51.992;5.890;2023-02-01T21:24:38;11.65;;;3.42;;
55827;SDS011;41758;51.992;5.890;2023-02-01T21:27:08;10.48;;;3.20;;
55827;SDS011;41758;51.992;5.890;2023-02-01T21:29:37;13.13;;;4.05;;
55827;SDS011;41758;51.992;5.890;2023-02-01T21:32:06;8.63;;;3.15;;
55827;SDS011;41758;51.992;5.890;2023-02-01T21:34:36;12.00;;;3.70;;
55827;SDS011;41758;51.992;5.890;2023-02-01T21:37:18;15.18;;;3.58;;
55827;SDS011;41758;51.992;5.890;2023-02-01T21:42:33;16.20;;;4.22;;
55827;SDS011;41758;51.992;5.890;2023-02-01T21:45:12;13.68;;;3.90;;
55827;SDS011;41758;51.992;5.890;2023-02-01T21:47:47;12.30;;;3.65;;
55827;SDS011;41758;51.992;5.890;2023-02-01T21:50:19;9.70;;;3.50;;
55827;SDS011;41758;51.992;5.890;2023-02-01T21:52:45;15.48;;;3.70;;
55827;SDS011;41758;51.992;5.890;2023-02-01T21:55:14;16.85;;;4.40;;
55827;SDS011;41758;51.992;5.890;2023-02-01T21:57:43;11.48;;;3.42;;
55827;SDS011;41758;51.992;5.890;2023-02-01T22:00:10;11.50;;;3.60;;
55827;SDS011;41758;51.992;5.890;2023-02-01T22:02:38;12.77;;;3.47;;
55827;SDS011;41758;51.992;5.890;2023-02-01T22:05:16;13.13;;;3.63;;
55827;SDS011;41758;51.992;5.890;2023-02-01T22:07:42;16.15;;;4.25;;
55827;SDS011;41758;51.992;5.890;2023-02-01T22:10:20;15.50;;;3.95;;
55827;SDS011;41758;51.992;5.890;2023-02-01T22:12:48;13.20;;;3.38;;
55827;SDS011;41758;51.992;5.890;2023-02-01T22:15:14;16.83;;;3.85;;
55827;SDS011;41758;51.992;5.890;2023-02-01T22:17:40;16.85;;;3.80;;
55827;SDS011;41758;51.992;5.890;2023-02-01T22:20:09;12.00;;;4.25;;
55827;SDS011;41758;51.992;5.890;2023-02-01T22:22:35;15.30;;;4.13;;
55827;SDS011;41758;51.992;5.890;2023-02-01T22:25:01;9.23;;;3.70;;
55827;SDS011;41758;51.992;5.890;2023-02-01T22:27:27;14.55;;;3.47;;
55827;SDS011;41758;51.992;5.890;2023-02-01T22:29:53;10.27;;;3.42;;
55827;SDS011;41758;51.992;5.890;2023-02-01T22:32:22;13.30;;;3.83;;
55827;SDS011;41758;51.992;5.890;2023-02-01T22:37:40;12.48;;;3.90;;
55827;SDS011;41758;51.992;5.890;2023-02-01T22:40:09;14.20;;;3.95;;
55827;SDS011;41758;51.992;5.890;2023-02-01T22:42:35;14.15;;;3.70;;
55827;SDS011;41758;51.992;5.890;2023-02-01T22:45:01;11.40;;;3.35;;
55827;SDS011;41758;51.992;5.890;2023-02-01T22:47:31;13.40;;;4.07;;
55827;SDS011;41758;51.992;5.890;2023-02-01T22:50:02;10.98;;;3.15;;
55827;SDS011;41758;51.992;5.890;2023-02-01T22:55:23;11.32;;;2.80;;
55827;SDS011;41758;51.992;5.890;2023-02-01T22:57:49;11.85;;;2.92;;
55827;SDS011;41758;51.992;5.890;2023-02-01T23:00:14;10.15;;;2.95;;
55827;SDS011;41758;51.992;5.890;2023-02-01T23:02:41;7.45;;;2.63;;
55827;SDS011;41758;51.992;5.890;2023-02-01T23:05:07;11.82;;;2.25;;
55827;SDS011;41758;51.992;5.890;2023-02-01T23:07:38;7.35;;;1.95;;
55827;SDS011;41758;51.992;5.890;2023-02-01T23:10:17;7.38;;;2.35;;
55827;SDS011;41758;51.992;5.890;2023-02-01T23:12:44;7.45;;;2.35;;
55827;SDS011;41758;51.992;5.890;2023-02-01T23:15:11;7.68;;;2.70;;
55827;SDS011;41758;51.992;5.890;2023-02-01T23:17:40;10.05;;;2.42;;
55827;SDS011;41758;51.992;5.890;2023-02-01T23:20:08;10.30;;;2.60;;
55827;SDS011;41758;51.992;5.890;2023-02-01T23:22:40;11.10;;;2.75;;